Time;durP1;ratioP1;P1;durP2;ratioP2;P2;SDS_P1;SDS_P2;PMS_P1;PMS_P2;Temp;Humidity;BMP_temperature;BMP_pressure;BME280_temperature;BME280_humidity;BME280_pressure;Samples;Min_cycle;Max_cycle;Signal;HPM_P1;HPM_P2
2021/05/18 00:00:51;;;;;;;3.83;2.98;;;;;;;37.91;37.78;161181.28;1601618;89;21238;-92
2021/05/18 00:03:24;;;;;;;3.92;3.50;;;;;;;37.94;37.69;161189.34;1632311;87;21392;-91
2021/05/18 00:05:58;;;;;;;3.00;2.40;;;;;;;37.87;37.79;161169.23;1649127;87;21241;-92
2021/05/18 00:08:33;;;;;;;3.30;2.52;;;;;;;37.84;37.81;161161.23;1648984;86;21232;-92
2021/05/18 00:13:56;;;;;;;2.85;2.52;;;;;;;37.82;37.77;161155.88;1629640;86;21381;-92
2021/05/18 00:16:29;;;;;;;5.58;2.83;;;;;;;37.89;37.63;161174.59;1630442;87;21391;-92
2021/05/18 00:19:03;;;;;;;3.02;2.30;;;;;;;37.97;37.53;161197.39;1632733;88;21736;-93
2021/05/18 00:21:36;;;;;;;3.12;2.33;;;;;;;37.98;37.45;161198.70;1632712;88;21368;-91
2021/05/18 00:24:08;;;;;;;3.75;2.80;;;;;;;37.94;37.46;161188.02;1606829;88;21667;-92
2021/05/18 00:26:41;;;;;;;3.27;2.70;;;;;;;37.87;37.51;161170.59;1626288;87;21761;-92
2021/05/18 00:29:17;;;;;;;4.50;2.58;;;;;;;37.90;37.49;161177.28;1613319;88;21729;-92
2021/05/18 00:31:49;;;;;;;3.70;2.70;;;;;;;37.88;37.44;161173.28;1616475;88;21442;-93
2021/05/18 00:34:22;;;;;;;3.58;2.85;;;;;;;37.87;37.40;161169.23;1626332;88;21170;-92
2021/05/18 00:36:54;;;;;;;5.65;2.80;;;;;;;37.88;37.39;161171.92;1619378;87;21362;-91
2021/05/18 00:39:26;;;;;;;2.98;2.50;;;;;;;37.75;37.43;161137.03;1626176;88;21234;-91
2021/05/18 00:41:59;;;;;;;3.92;2.45;;;;;;;37.72;37.42;161130.36;1607479;88;21402;-93
2021/05/18 00:44:31;;;;;;;3.15;2.58;;;;;;;37.67;37.44;161116.98;1623894;87;21356;-93
2021/05/18 00:47:04;;;;;;;2.83;2.30;;;;;;;37.65;37.44;161110.25;1604710;88;21517;-92
2021/05/18 00:49:39;;;;;;;2.02;1.82;;;;;;;37.63;37.45;161104.89;1610315;89;21282;-92
2021/05/18 00:52:12;;;;;;;2.35;2.15;;;;;;;37.58;37.40;161091.53;1625579;87;21225;-92
2021/05/18 00:54:57;;;;;;;2.85;2.22;;;;;;;37.58;37.35;161092.84;1626319;88;21230;-92
2021/05/18 01:00:17;;;;;;;3.07;1.83;;;;;;;37.56;37.23;161086.16;1623530;88;21364;-91
2021/05/18 01:02:49;;;;;;;2.20;2.00;;;;;;;37.49;37.25;161068.75;1619780;88;21244;-92
2021/05/18 01:06:18;;;;;;;1.47;1.37;;;;;;;37.46;37.26;161059.38;1626221;88;21202;-92
2021/05/18 01:07:56;;;;;;;2.00;1.80;;;;;;;37.44;37.21;161055.33;1623116;87;21193;-93
2021/05/18 01:10:28;;;;;;;1.70;1.60;;;;;;;37.42;37.18;161050.03;1619474;87;21382;-92
2021/05/18 01:13:01;;;;;;;1.85;1.55;;;;;;;37.38;37.17;161037.97;1626039;87;21263;-92
2021/05/18 01:15:33;;;;;;;1.82;1.65;;;;;;;37.36;37.13;161032.61;1625281;87;21238;-92
2021/05/18 01:18:07;;;;;;;2.50;1.82;;;;;;;37.30;37.15;161016.47;1617777;87;21238;-92
2021/05/18 01:20:41;;;;;;;1.62;1.30;;;;;;;37.28;37.11;161012.47;1625216;87;21215;-92
2021/05/18 01:23:14;;;;;;;1.70;1.42;;;;;;;37.27;37.07;161009.78;1598330;88;21244;-92
2021/05/18 01:25:46;;;;;;;1.60;1.40;;;;;;;37.26;37.02;161005.78;1626307;87;21231;-93
2021/05/18 01:28:19;;;;;;;1.50;1.40;;;;;;;37.23;37.03;160999.06;1626296;87;21279;-93
2021/05/18 01:30:52;;;;;;;1.35;1.25;;;;;;;37.22;37.00;160996.38;1601806;88;21730;-91
2021/05/18 01:33:24;;;;;;;1.20;1.10;;;;;;;37.18;37.01;160984.33;1631847;88;21194;-91
2021/05/18 01:35:58;;;;;;;1.40;1.30;;;;;;;37.12;37.02;160968.28;1619561;88;21842;-92
2021/05/18 01:38:40;;;;;;;1.37;1.27;;;;;;;37.04;37.10;160946.83;1616354;87;21273;-92
2021/05/18 01:43:57;;;;;;;1.40;1.30;;;;;;;37.02;37.05;160941.52;1606001;88;21198;-93
2021/05/18 01:46:30;;;;;;;4.10;1.20;;;;;;;37.03;36.98;160945.52;1620231;87;21824;-91
2021/05/18 01:49:09;;;;;;;1.10;1.00;;;;;;;37.01;37.02;160937.47;1611922;88;21375;-93
2021/05/18 01:51:56;;;;;;;1.30;1.20;;;;;;;36.94;37.01;160920.06;1607562;88;21225;-92
2021/05/18 01:54:32;;;;;;;1.20;1.10;;;;;;;36.91;37.02;160912.06;1626316;87;21725;-92
2021/05/18 01:57:21;;;;;;;1.60;1.45;;;;;;;36.90;37.02;160909.39;1619621;88;21761;-93
2021/05/18 01:59:57;;;;;;;3.70;1.87;;;;;;;36.91;36.97;160912.06;1608429;88;21166;-93
2021/05/18 02:02:29;;;;;;;1.17;1.07;;;;;;;36.90;36.94;160908.02;1609406;87;21354;-92
2021/05/18 02:05:08;;;;;;;1.40;1.30;;;;;;;36.87;36.95;160901.28;1612919;89;21259;-92
2021/05/18 02:07:47;;;;;;;1.40;1.30;;;;;;;36.85;36.96;160895.92;1612819;89;21227;-93
2021/05/18 02:10:20;;;;;;;1.17;1.07;;;;;;;36.87;36.89;160901.28;1612880;89;21263;-93
2021/05/18 02:12:56;;;;;;;1.20;1.10;;;;;;;36.82;36.90;160887.88;1619687;87;21650;-93
2021/05/18 02:18:27;;;;;;;1.32;1.17;;;;;;;36.79;36.87;160879.87;1601981;88;21388;-92
2021/05/18 02:20:50;;;;;;;2.80;1.50;;;;;;;36.75;36.91;160867.84;1641783;86;21222;-92
2021/05/18 02:26:15;;;;;;;1.27;1.17;;;;;;;36.75;36.89;160867.84;1660912;86;21765;-93
2021/05/18 02:28:50;;;;;;;1.35;1.25;;;;;;;36.68;36.92;160850.44;1660711;85;21237;-92
2021/05/18 02:31:23;;;;;;;1.27;1.17;;;;;;;36.68;36.88;160850.44;1595074;89;21396;-92
2021/05/18 02:33:57;;;;;;;1.60;1.50;;;;;;;36.69;36.86;160851.75;1613359;88;21397;-92
2021/05/18 02:36:31;;;;;;;1.20;1.10;;;;;;;36.70;36.85;160854.44;1647595;86;21348;-93
2021/05/18 02:39:04;;;;;;;1.30;1.20;;;;;;;36.70;36.80;160855.75;1603354;88;21193;-93
2021/05/18 02:41:37;;;;;;;1.40;1.30;;;;;;;36.62;36.87;160833.03;1626610;88;21278;-93
2021/05/18 02:44:21;;;;;;;1.62;1.52;;;;;;;36.64;36.84;160839.72;1632330;87;21205;-93
2021/05/18 02:49:27;;;;;;;1.65;1.55;;;;;;;36.64;36.80;160838.34;1592008;86;21249;-94
2021/05/18 02:51:59;;;;;;;3.85;1.57;;;;;;;36.59;36.82;160825.00;1649167;85;21179;-94
2021/05/18 02:54:32;;;;;;;2.15;1.90;;;;;;;36.61;36.80;160831.67;1646959;87;21265;-92
2021/05/18 02:57:09;;;;;;;2.58;1.85;;;;;;;36.64;36.77;160838.34;1647000;87;21352;-92
2021/05/18 02:59:41;;;;;;;1.80;1.70;;;;;;;36.66;36.74;160843.72;1627034;87;21749;-92
2021/05/18 03:02:13;;;;;;;3.17;1.65;;;;;;;36.63;36.74;160835.72;1635192;86;21290;-91
2021/05/18 03:04:45;;;;;;;2.02;1.82;;;;;;;36.66;36.71;160845.08;1644823;87;21246;-93
2021/05/18 03:07:18;;;;;;;1.65;1.55;;;;;;;36.72;36.61;160859.80;1648748;86;21213;-92
2021/05/18 03:09:53;;;;;;;2.72;1.82;;;;;;;36.72;36.59;160861.12;1646902;86;21206;-90
2021/05/18 03:12:25;;;;;;;1.70;1.60;;;;;;;36.73;36.58;160863.80;1642110;86;21186;-90
2021/05/18 03:14:59;;;;;;;2.10;1.90;;;;;;;36.74;36.57;160866.48;1647214;86;22432;-91
2021/05/18 03:17:33;;;;;;;1.80;1.70;;;;;;;36.73;36.57;160863.80;1634858;86;21833;-90
2021/05/18 03:20:13;;;;;;;1.90;1.70;;;;;;;36.73;36.58;160863.80;1630998;86;21361;-90
2021/05/18 03:22:46;;;;;;;1.82;1.72;;;;;;;36.76;36.53;160871.84;1636042;86;21738;-90
2021/05/18 03:25:18;;;;;;;2.00;1.80;;;;;;;36.75;36.55;160869.16;1605066;89;21384;-89
2021/05/18 03:27:53;;;;;;;2.10;1.90;;;;;;;36.76;36.52;160871.84;1605268;88;21852;-89
2021/05/18 03:35:53;;;;;;;2.00;1.70;;;;;;;36.80;36.47;160882.56;1605199;89;21417;-90
2021/05/18 03:38:29;;;;;;;2.25;1.80;;;;;;;36.77;36.47;160874.52;1605178;88;21266;-89
2021/05/18 03:41:04;;;;;;;2.50;1.65;;;;;;;36.79;36.47;160879.87;1638475;85;21245;-90
2021/05/18 03:43:59;;;;;;;2.52;1.90;;;;;;;36.74;36.52;160866.48;1652670;86;21181;-87
2021/05/18 04:11:32;;;;;;;1.52;1.42;;;;;;;36.92;36.40;160914.75;1631371;86;21476;-90
2021/05/18 04:19:14;;;;;;;3.10;1.98;;;;;;;36.98;36.36;160929.47;1639589;86;21391;-91
2021/05/18 04:24:58;;;;;;;2.85;1.70;;;;;;;36.97;36.41;160926.80;1629907;88;21523;-87
2021/05/18 04:52:28;;;;;;;1.82;1.67;;;;;;;37.10;36.39;160962.92;1600671;87;21392;-90
2021/05/18 04:58:58;;;;;;;1.92;1.65;;;;;;;37.14;36.39;160973.66;1572499;91;21237;-90
2021/05/18 05:00:45;;;;;;;1.63;1.53;;;;;;;37.24;36.33;161000.42;1591277;88;21206;-88
2021/05/18 05:03:42;;;;;;;1.75;1.55;;;;;;;37.31;36.25;161020.52;1631344;88;21376;-89
2021/05/18 05:06:16;;;;;;;1.62;1.52;;;;;;;37.27;36.30;161009.78;1616828;87;21315;-89
2021/05/18 05:16:56;;;;;;;2.22;2.02;;;;;;;37.19;36.43;160988.37;1597117;88;21257;-87
2021/05/18 05:19:32;;;;;;;3.40;1.80;;;;;;;37.17;36.48;160983.00;1598668;88;21916;-89
2021/05/18 05:22:08;;;;;;;3.08;1.72;;;;;;;37.17;36.50;160981.64;1598197;88;21448;-90
2021/05/18 05:24:44;;;;;;;1.75;1.65;;;;;;;37.25;36.47;161003.09;1602042;88;21957;-90
2021/05/18 05:27:19;;;;;;;2.52;1.95;;;;;;;37.30;36.49;161017.83;1630813;86;21439;-90
2021/05/18 05:29:54;;;;;;;1.98;1.77;;;;;;;37.31;36.48;161019.16;1627793;86;21975;-91
2021/05/18 05:32:29;;;;;;;3.70;1.67;;;;;;;37.27;36.55;161008.41;1629499;86;21281;-90
2021/05/18 05:35:03;;;;;;;1.75;1.37;;;;;;;37.25;36.58;161004.41;1631616;86;21907;-92
2021/05/18 05:37:42;;;;;;;3.20;1.70;;;;;;;37.23;36.57;160999.06;1631862;86;21357;-90
2021/05/18 05:40:18;;;;;;;2.02;1.62;;;;;;;37.37;36.48;161036.61;1631078;85;21609;-88
2021/05/18 05:42:51;;;;;;;1.72;1.62;;;;;;;37.43;36.52;161051.34;1630522;86;21329;-87
2021/05/18 05:45:24;;;;;;;2.05;1.85;;;;;;;37.49;36.50;161068.75;1631876;86;21274;-88
2021/05/18 05:47:57;;;;;;;2.25;1.85;;;;;;;37.54;36.50;161082.16;1634027;86;21247;-88
2021/05/18 05:50:31;;;;;;;2.65;2.10;;;;;;;37.55;36.52;161083.47;1631317;86;21207;-89
2021/05/18 05:53:03;;;;;;;1.98;1.77;;;;;;;37.51;36.54;161074.11;1630873;86;21471;-89
2021/05/18 05:55:37;;;;;;;2.00;1.80;;;;;;;37.47;36.64;161063.38;1631276;86;21349;-89
2021/05/18 05:58:10;;;;;;;2.15;1.95;;;;;;;37.54;36.60;161080.80;1633821;86;21352;-87
2021/05/18 06:00:43;;;;;;;2.22;1.98;;;;;;;37.55;36.65;161083.47;1632698;86;21380;-86
2021/05/18 06:03:16;;;;;;;2.15;1.80;;;;;;;37.55;36.70;161083.47;1630953;86;21187;-87
2021/05/18 06:05:49;;;;;;;3.90;2.10;;;;;;;37.67;36.59;161115.63;1630469;86;21298;-86
2021/05/18 06:08:23;;;;;;;2.25;2.05;;;;;;;37.64;36.62;161107.58;1632645;86;21235;-87
2021/05/18 06:11:09;;;;;;;2.15;2.05;;;;;;;37.69;36.58;161122.31;1632218;86;21340;-88
2021/05/18 06:47:50;;;;;;;;;;;;;;;38.34;37.16;161296.59;1599537;88;21515;-86
2021/05/18 06:50:28;;;;;;;2.42;2.22;;;;;;;38.38;36.96;161308.64;1596946;88;20241;-86
2021/05/18 06:52:58;;;;;;;2.92;2.15;;;;;;;38.49;36.80;161336.75;1595046;88;21285;-88
2021/05/18 06:55:32;;;;;;;4.37;2.75;;;;;;;38.53;36.63;161348.86;1598448;88;21391;-89
2021/05/18 06:58:09;;;;;;;4.20;3.50;;;;;;;38.66;37.21;161382.39;1596948;88;21262;-86
2021/05/18 07:00:42;;;;;;;4.37;3.65;;;;;;;38.75;38.15;161406.50;1598714;88;21254;-88
2021/05/18 07:03:20;;;;;;;8.50;4.33;;;;;;;38.52;39.26;161346.17;1597439;88;21423;-90
2021/05/18 07:06:05;;;;;;;5.25;4.65;;;;;;;38.46;40.40;161328.75;1597452;90;21420;-87
2021/05/18 07:11:08;;;;;;;7.85;4.72;;;;;;;38.54;41.18;161350.17;1602378;88;21179;-87
2021/05/18 07:13:41;;;;;;;5.87;4.95;;;;;;;38.60;41.56;161366.28;1610767;88;21320;-87
2021/05/18 07:16:15;;;;;;;7.83;4.90;;;;;;;38.65;41.70;161381.08;1605128;89;21761;-86
2021/05/18 07:18:47;;;;;;;5.33;4.80;;;;;;;38.72;41.69;161398.45;1609677;89;21334;-86
2021/05/18 07:21:20;;;;;;;7.22;4.80;;;;;;;38.78;41.62;161415.88;1596583;90;21751;-86
2021/05/18 07:23:53;;;;;;;6.35;4.78;;;;;;;38.79;41.53;161418.56;1596301;89;21472;-86
2021/05/18 07:26:25;;;;;;;6.60;5.37;;;;;;;38.88;41.29;161441.36;1594652;90;21413;-87
2021/05/18 07:28:59;;;;;;;6.05;5.20;;;;;;;38.87;41.24;161438.67;1602508;89;21807;-88
2021/05/18 07:31:32;;;;;;;7.12;5.30;;;;;;;38.80;41.35;161421.25;1629683;87;21360;-87
2021/05/18 07:34:04;;;;;;;7.60;5.85;;;;;;;38.85;41.37;161433.31;1629800;86;22472;-87
2021/05/18 07:36:37;;;;;;;7.40;5.65;;;;;;;38.81;41.39;161423.94;1629831;88;21706;-86
2021/05/18 07:39:09;;;;;;;6.45;5.80;;;;;;;38.74;41.53;161405.19;1629986;88;21357;-86
2021/05/18 07:41:42;;;;;;;7.90;5.70;;;;;;;38.67;41.76;161386.39;1629993;88;21372;-86
2021/05/18 07:44:14;;;;;;;6.78;5.75;;;;;;;38.58;41.96;161362.23;1629827;87;21368;-86
2021/05/18 07:46:47;;;;;;;6.20;5.60;;;;;;;38.58;41.99;161362.23;1629752;87;21817;-86
2021/05/18 07:49:36;;;;;;;7.28;5.97;;;;;;;38.54;42.13;161351.50;1629628;88;21897;-85
2021/05/18 07:59:14;;;;;;;8.85;6.58;;;;;;;38.55;42.24;161354.19;1626674;88;21396;-85
2021/05/18 08:05:36;;;;;;;7.22;6.25;;;;;;;38.53;42.29;161348.86;1629664;88;21360;-86
2021/05/18 08:08:09;;;;;;;6.90;6.20;;;;;;;38.57;42.61;161359.55;1629508;87;21464;-86
2021/05/18 08:13:22;;;;;;;8.78;7.00;;;;;;;38.64;42.73;161376.97;1629389;86;21762;-87
2021/05/18 09:33:30;;;;;;;3.03;2.40;;;;;;;40.12;44.25;161778.09;1581091;90;21279;-85
2021/05/18 09:44:22;;;;;;;1.80;1.43;;;;;;;40.63;43.11;161913.66;1620979;88;21872;-86
2021/05/18 09:48:42;;;;;;;2.47;1.35;;;;;;;40.80;42.46;161959.36;1620379;88;21259;-86
2021/05/18 10:26:34;;;;;;;2.60;1.10;;;;;;;41.64;38.80;162187.63;1602609;89;21223;-86
2021/05/18 10:36:14;;;;;;;1.00;0.90;;;;;;;41.56;38.26;162166.16;1607656;88;21215;-86
2021/05/18 10:38:50;;;;;;;1.30;0.90;;;;;;;41.58;38.05;162170.17;1607326;88;21294;-86
2021/05/18 10:41:23;;;;;;;1.77;1.02;;;;;;;41.56;38.00;162164.78;1607591;88;21916;-85
2021/05/18 10:44:12;;;;;;;1.32;0.90;;;;;;;41.50;37.92;162149.97;1607456;88;21230;-85
2021/05/18 10:46:55;;;;;;;1.70;1.20;;;;;;;41.46;37.83;162137.89;1606925;88;21830;-86
2021/05/18 10:49:40;;;;;;;1.62;1.10;;;;;;;41.41;37.83;162125.81;1607346;88;21273;-86
2021/05/18 10:52:13;;;;;;;1.98;0.90;;;;;;;41.41;37.51;162125.81;1607498;89;21298;-85
2021/05/18 10:54:45;;;;;;;2.02;1.10;;;;;;;41.20;37.60;162068.13;1607586;88;21353;-90
2021/05/18 10:57:30;;;;;;;2.37;1.05;;;;;;;41.07;37.65;162034.48;1607342;89;21270;-87
2021/05/18 11:00:08;;;;;;;1.25;1.10;;;;;;;41.04;37.62;162026.42;1607304;88;21281;-86
2021/05/18 11:02:41;;;;;;;5.75;1.98;;;;;;;41.20;37.44;162068.13;1607418;89;21334;-87
2021/05/18 11:05:16;;;;;;;2.10;1.45;;;;;;;41.10;37.48;162042.55;1607591;88;21832;-86
2021/05/18 11:07:50;;;;;;;3.95;1.55;;;;;;;41.07;37.52;162034.48;1607524;88;21254;-87
2021/05/18 11:10:22;;;;;;;3.45;1.67;;;;;;;41.00;37.55;162015.72;1607599;89;21226;-86
2021/05/18 11:12:55;;;;;;;3.37;1.20;;;;;;;40.94;37.55;161999.58;1607717;89;21729;-87
2021/05/18 11:15:27;;;;;;;2.83;1.20;;;;;;;40.92;37.42;161992.89;1607402;89;21829;-87
2021/05/18 11:17:59;;;;;;;1.30;1.12;;;;;;;40.77;36.71;161952.61;1607523;88;21254;-86
2021/05/18 11:23:30;;;;;;;0.70;0.60;;;;;;;40.36;35.81;161842.55;1607576;89;21409;-85
2021/05/18 11:26:11;;;;;;;2.77;1.00;;;;;;;40.23;35.92;161807.61;1607524;88;21230;-86
2021/05/18 11:28:47;;;;;;;1.75;1.12;;;;;;;39.98;36.13;161740.53;1614527;87;21305;-86
2021/05/18 11:31:23;;;;;;;1.70;0.98;;;;;;;39.91;36.53;161719.03;1627706;87;22411;-85
2021/05/18 11:34:03;;;;;;;1.25;0.93;;;;;;;39.73;37.08;161670.72;1627654;88;21233;-85
2021/05/18 11:36:43;;;;;;;3.25;0.90;;;;;;;39.63;37.38;161643.91;1627731;87;21194;-84
2021/05/18 11:39:18;;;;;;;2.77;1.10;;;;;;;39.58;37.56;161630.53;1627791;87;21721;-84
2021/05/18 11:41:52;;;;;;;1.55;0.95;;;;;;;39.54;37.71;161619.78;1627690;87;21202;-84
2021/05/18 11:44:22;;;;;;;1.37;1.10;;;;;;;39.40;38.18;161582.17;1627379;87;21706;-83
2021/05/18 11:46:58;;;;;;;3.15;1.60;;;;;;;39.37;38.43;161574.13;1627815;87;21231;-84
2021/05/18 11:49:28;;;;;;;3.87;1.10;;;;;;;39.32;38.63;161562.06;1627777;87;21206;-84
2021/05/18 11:52:00;;;;;;;2.25;1.30;;;;;;;39.24;38.76;161539.25;1627837;87;21885;-84
2021/05/18 11:54:37;;;;;;;1.77;1.22;;;;;;;39.20;38.92;161529.88;1624771;87;21694;-85
2021/05/18 11:57:10;;;;;;;1.77;1.50;;;;;;;39.21;39.11;161531.25;1627953;87;21316;-84
2021/05/18 11:59:42;;;;;;;4.45;1.20;;;;;;;39.18;39.33;161523.19;1627719;88;21246;-83
2021/05/18 12:02:17;;;;;;;4.58;1.52;;;;;;;39.14;39.62;161513.81;1627718;88;21717;-84
2021/05/18 12:04:51;;;;;;;4.05;1.57;;;;;;;39.13;39.94;161509.77;1587487;88;21217;-83
2021/05/18 12:07:24;;;;;;;1.67;1.20;;;;;;;39.06;40.20;161492.28;1627892;87;21317;-84
2021/05/18 12:09:57;;;;;;;2.50;1.77;;;;;;;39.00;40.43;161476.22;1627784;88;21190;-83
2021/05/18 12:12:38;;;;;;;4.28;1.70;;;;;;;39.04;40.55;161486.97;1627771;87;21207;-83
2021/05/18 12:15:12;;;;;;;2.75;1.62;;;;;;;39.04;40.62;161486.97;1627880;88;21186;-83
2021/05/18 12:17:44;;;;;;;2.20;1.90;;;;;;;39.02;40.78;161480.22;1627785;88;21713;-84
2021/05/18 12:20:17;;;;;;;4.47;2.00;;;;;;;39.00;40.92;161476.22;1627768;88;21259;-84
2021/05/18 12:22:51;;;;;;;6.60;2.33;;;;;;;39.00;41.09;161476.22;1627883;87;21191;-83
2021/05/18 12:25:35;;;;;;;6.37;2.30;;;;;;;38.96;41.25;161465.47;1627831;88;21246;-83
2021/05/18 12:28:11;;;;;;;2.90;2.17;;;;;;;38.98;41.48;161469.53;1627816;88;21198;-82
2021/05/18 12:30:43;;;;;;;3.33;2.17;;;;;;;38.95;41.70;161461.47;1609730;88;21250;-83
2021/05/18 12:33:16;;;;;;;6.03;2.35;;;;;;;38.96;41.76;161465.47;1602714;88;21223;-83
2021/05/18 12:35:48;;;;;;;6.47;2.90;;;;;;;38.97;41.84;161468.16;1602548;88;21268;-83
2021/05/18 12:38:20;;;;;;;3.30;1.85;;;;;;;38.95;42.06;161461.47;1602576;88;21781;-84
2021/05/18 12:40:56;;;;;;;5.35;2.27;;;;;;;38.91;42.08;161449.42;1602680;88;21322;-83
2021/05/18 12:43:38;;;;;;;4.75;1.82;;;;;;;38.92;42.11;161453.42;1582560;89;21285;-85
2021/05/18 12:46:15;;;;;;;8.10;2.15;;;;;;;38.92;42.30;161453.42;1602704;89;21207;-83
2021/05/18 12:48:48;;;;;;;5.22;2.47;;;;;;;38.89;42.48;161445.36;1602377;88;22433;-83
2021/05/18 12:51:30;;;;;;;5.00;3.02;;;;;;;38.92;42.52;161453.42;1602447;88;21230;-82
2021/05/18 12:54:05;;;;;;;6.25;3.42;;;;;;;38.98;42.62;161469.53;1602475;88;21783;-82
2021/05/18 12:56:39;;;;;;;5.75;3.65;;;;;;;38.99;42.84;161472.22;1602717;88;21214;-83
2021/05/18 12:59:11;;;;;;;5.22;2.90;;;;;;;39.01;42.84;161477.53;1602721;88;21214;-83
2021/05/18 13:01:49;;;;;;;4.12;2.55;;;;;;;38.97;42.98;161466.84;1602655;89;21812;-84
2021/05/18 13:04:22;;;;;;;6.15;2.42;;;;;;;38.95;43.02;161461.47;1602524;88;21275;-83
2021/05/18 13:06:56;;;;;;;6.05;3.10;;;;;;;38.95;42.99;161461.47;1602420;89;21267;-83
2021/05/18 13:09:31;;;;;;;4.58;3.08;;;;;;;38.98;43.00;161470.84;1602611;88;21290;-84
2021/05/18 13:12:11;;;;;;;3.17;2.60;;;;;;;38.93;43.21;161456.11;1602747;89;21781;-82
2021/05/18 13:15:00;;;;;;;4.47;3.00;;;;;;;38.93;43.31;161454.78;1602521;89;21255;-82
2021/05/18 13:17:32;;;;;;;6.78;2.87;;;;;;;38.85;43.46;161434.67;1602547;88;21361;-82
2021/05/18 13:20:12;;;;;;;3.75;2.47;;;;;;;38.87;43.62;161438.67;1602634;88;21246;-82
2021/05/18 13:22:49;;;;;;;8.60;2.55;;;;;;;38.90;43.71;161446.73;1602543;88;21238;-83
2021/05/18 13:28:09;;;;;;;10.25;3.25;;;;;;;38.93;43.97;161456.11;1602680;88;21227;-84
2021/05/18 13:30:41;;;;;;;7.95;3.52;;;;;;;38.91;44.18;161449.42;1602556;87;21357;-84
2021/05/18 13:33:14;;;;;;;7.15;3.62;;;;;;;38.91;44.29;161449.42;1602574;89;21326;-84
2021/05/18 13:35:47;;;;;;;4.78;3.40;;;;;;;38.98;44.23;161470.84;1602520;88;21802;-84
2021/05/18 13:38:19;;;;;;;5.00;3.30;;;;;;;39.09;44.28;161499.08;1602646;88;21811;-84
2021/05/18 13:40:51;;;;;;;4.92;3.35;;;;;;;39.21;44.32;161531.25;1581762;89;21864;-84
2021/05/18 13:43:24;;;;;;;4.00;2.83;;;;;;;39.18;44.26;161523.19;1602750;88;21275;-85
2021/05/18 13:45:57;;;;;;;3.67;2.70;;;;;;;39.21;44.18;161531.25;1602517;88;21219;-85
2021/05/18 13:48:30;;;;;;;2.95;2.35;;;;;;;39.25;44.15;161543.31;1602577;88;21253;-84
2021/05/18 13:51:03;;;;;;;12.05;2.47;;;;;;;39.31;44.08;161558.06;1602692;88;21266;-85
2021/05/18 13:53:38;;;;;;;3.47;1.85;;;;;;;39.31;43.88;161558.06;1600744;88;21223;-85
2021/05/18 13:56:11;;;;;;;3.67;2.15;;;;;;;39.39;43.70;161580.86;1602469;89;21271;-83
2021/05/18 13:58:43;;;;;;;4.85;2.15;;;;;;;39.43;43.42;161591.55;1602545;89;21738;-83
2021/05/18 14:01:16;;;;;;;2.90;1.95;;;;;;;39.42;43.32;161587.55;1602630;89;21270;-85
2021/05/18 14:03:49;;;;;;;3.87;2.80;;;;;;;39.40;43.31;161582.17;1581725;89;21230;-84
2021/05/18 14:06:22;;;;;;;6.62;3.08;;;;;;;39.31;43.38;161559.38;1602707;88;21274;-84
2021/05/18 14:08:55;;;;;;;3.72;2.00;;;;;;;39.29;43.24;161552.69;1602451;89;21258;-85
2021/05/18 14:11:27;;;;;;;3.85;1.80;;;;;;;39.24;43.07;161539.25;1602539;89;21716;-84
2021/05/18 14:14:00;;;;;;;4.05;2.50;;;;;;;39.18;42.99;161524.50;1602654;89;21730;-84
2021/05/18 14:16:32;;;;;;;3.50;2.60;;;;;;;39.18;43.01;161524.50;1602526;89;21315;-84
2021/05/18 14:19:05;;;;;;;4.17;2.47;;;;;;;39.16;43.25;161519.19;1602532;89;21318;-83
2021/05/18 14:21:40;;;;;;;3.50;2.37;;;;;;;39.14;43.47;161512.44;1581985;89;21214;-83
2021/05/18 14:24:21;;;;;;;2.62;2.42;;;;;;;39.11;43.47;161504.44;1602186;88;21274;-83
2021/05/18 14:26:47;;;;;;;2.35;1.80;;;;;;;39.07;43.52;161494.97;1602369;88;21243;-84
2021/05/18 14:29:22;;;;;;;3.05;1.80;;;;;;;39.03;43.51;161482.91;1595914;89;21258;-83
2021/05/18 14:31:56;;;;;;;2.92;1.82;;;;;;;39.02;43.55;161480.22;1607214;88;21304;-89
2021/05/18 14:34:29;;;;;;;4.65;1.90;;;;;;;38.89;43.84;161445.36;1627583;87;21718;-86
2021/05/18 14:37:02;;;;;;;9.85;4.33;;;;;;;38.91;43.89;161449.42;1627631;87;21281;-86
2021/05/18 14:40:00;;;;;;;6.45;3.95;;;;;;;38.92;43.95;161453.42;1627808;87;21194;-86
2021/05/18 14:45:02;;;;;;;3.33;2.42;;;;;;;38.91;44.21;161450.73;1627544;88;21213;-85
2021/05/18 14:47:53;;;;;;;2.70;2.08;;;;;;;38.89;44.33;161444.05;1627850;88;21330;-87
2021/05/18 14:55:55;;;;;;;3.15;2.15;;;;;;;38.89;44.64;161444.05;1627701;88;21267;-84
2021/05/18 14:58:28;;;;;;;6.72;2.72;;;;;;;38.88;44.69;161442.73;1627618;88;21238;-84
2021/05/18 15:01:00;;;;;;;2.17;1.92;;;;;;;38.88;44.77;161441.36;1626222;88;22437;-85
2021/05/18 15:03:34;;;;;;;10.63;2.98;;;;;;;38.84;44.87;161430.62;1624298;87;21304;-84
2021/05/18 15:06:07;;;;;;;5.30;3.05;;;;;;;38.81;44.92;161422.61;1624175;88;21474;-85
2021/05/18 15:08:40;;;;;;;4.53;2.77;;;;;;;38.79;44.95;161418.56;1624191;88;21248;-85
2021/05/18 15:11:13;;;;;;;8.05;5.28;;;;;;;38.76;44.96;161410.56;1624400;88;21787;-89
2021/05/18 15:13:47;;;;;;;3.98;3.30;;;;;;;38.74;44.93;161405.19;1626238;88;21150;-87
2021/05/18 15:16:19;;;;;;;6.17;3.22;;;;;;;38.73;45.02;161402.50;1627770;87;21237;-82
2021/05/18 15:18:53;;;;;;;6.85;2.83;;;;;;;38.73;45.04;161401.14;1627837;88;21174;-86
2021/05/18 15:21:26;;;;;;;4.60;3.05;;;;;;;38.73;45.25;161401.14;1627890;88;21198;-86
2021/05/18 15:24:00;;;;;;;4.25;2.50;;;;;;;38.70;45.41;161393.12;1627717;88;21805;-86
2021/05/18 15:26:34;;;;;;;2.77;2.58;;;;;;;38.76;45.54;161409.19;1627687;87;21190;-86
2021/05/18 15:29:07;;;;;;;6.92;3.22;;;;;;;38.81;45.50;161423.94;1603266;89;21367;-86
2021/05/18 15:31:40;;;;;;;3.00;2.42;;;;;;;38.83;45.53;161427.98;1617247;88;21225;-87
2021/05/18 15:34:12;;;;;;;4.08;2.25;;;;;;;38.88;45.64;161442.73;1601366;88;21250;-86
2021/05/18 15:36:45;;;;;;;4.90;2.55;;;;;;;38.88;45.91;161442.73;1594360;90;21242;-86
2021/05/18 15:39:17;;;;;;;3.65;2.80;;;;;;;38.98;46.09;161469.53;1600111;88;21716;-85
2021/05/18 15:41:50;;;;;;;3.05;2.40;;;;;;;38.96;46.20;161464.16;1602580;89;21274;-85
2021/05/18 15:44:22;;;;;;;3.85;2.62;;;;;;;39.02;46.29;161480.22;1602592;89;21274;-85
2021/05/18 15:46:55;;;;;;;3.95;2.37;;;;;;;39.12;46.19;161507.13;1602710;89;21717;-85
2021/05/18 15:49:29;;;;;;;4.00;2.42;;;;;;;39.18;46.00;161523.19;1602585;88;21371;-86
2021/05/18 15:52:01;;;;;;;7.47;4.70;;;;;;;39.34;45.81;161566.13;1616441;89;21795;-85
2021/05/18 15:54:34;;;;;;;3.98;3.50;;;;;;;39.46;45.53;161598.30;1617269;88;21805;-85
2021/05/18 15:57:06;;;;;;;3.70;3.15;;;;;;;39.50;45.36;161610.41;1615054;87;21225;-85
2021/05/18 15:59:39;;;;;;;3.17;2.50;;;;;;;39.59;45.12;161633.16;1602390;88;21669;-85
2021/05/18 16:02:11;;;;;;;4.30;3.37;;;;;;;39.65;44.99;161650.59;1594479;90;21202;-85
2021/05/18 16:04:44;;;;;;;3.45;3.15;;;;;;;39.67;44.86;161655.97;1594588;90;21453;-85
2021/05/18 16:07:20;;;;;;;3.65;3.08;;;;;;;39.63;44.87;161645.28;1595094;89;21585;-85
2021/05/18 16:09:53;;;;;;;4.90;3.70;;;;;;;39.58;44.92;161630.53;1594490;88;21206;-86
2021/05/18 16:12:25;;;;;;;5.78;3.80;;;;;;;39.56;44.95;161626.47;1594301;90;21266;-85
2021/05/18 16:14:59;;;;;;;7.65;4.12;;;;;;;39.55;44.99;161623.78;1598212;88;21710;-83
2021/05/18 16:17:31;;;;;;;9.90;4.17;;;;;;;39.55;45.09;161623.78;1599178;89;21322;-83
2021/05/18 16:20:05;;;;;;;12.33;4.90;;;;;;;39.49;45.39;161606.31;1602514;89;21223;-82
2021/05/18 16:22:38;;;;;;;5.78;3.30;;;;;;;39.59;45.03;161634.53;1602637;89;21234;-82
2021/05/18 16:25:11;;;;;;;2.72;2.27;;;;;;;39.41;45.11;161584.86;1602518;88;21752;-82
2021/05/18 16:27:43;;;;;;;4.05;2.33;;;;;;;39.33;44.69;161563.44;1604167;89;21242;-78
2021/05/18 16:30:16;;;;;;;3.67;1.87;;;;;;;39.25;44.62;161541.94;1614493;88;21244;-79
2021/05/18 16:32:49;;;;;;;4.15;1.72;;;;;;;39.20;44.57;161528.56;1615631;88;21193;-78
2021/05/18 16:35:22;;;;;;;2.62;1.90;;;;;;;39.18;44.70;161523.19;1615569;87;21405;-79
2021/05/18 16:37:54;;;;;;;3.25;1.92;;;;;;;39.14;44.75;161512.44;1617148;88;22351;-79
2021/05/18 16:40:27;;;;;;;4.17;2.12;;;;;;;39.09;44.76;161499.08;1623733;87;21228;-80
2021/05/18 16:42:59;;;;;;;4.65;2.02;;;;;;;39.09;44.73;161499.08;1623914;88;21774;-79